sensor_id;sensor_type;location;lat;lon;timestamp;P1;durP1;ratioP1;P2;durP2;ratioP2
21091;SDS011;10704;42.678;23.288;2022-10-23T00:00:00;32.63;;;20.13;;
21091;SDS011;10704;42.678;23.288;2022-10-23T00:06:27;34.15;;;21.70;;
21091;SDS011;10704;42.678;23.288;2022-10-23T00:08:54;34.20;;;20.60;;
21091;SDS011;10704;42.678;23.288;2022-10-23T00:11:22;32.92;;;21.35;;
21091;SDS011;10704;42.678;23.288;2022-10-23T00:13:49;36.72;;;21.25;;
21091;SDS011;10704;42.678;23.288;2022-10-23T00:23:47;34.40;;;21.65;;
21091;SDS011;10704;42.678;23.288;2022-10-23T00:26:13;38.33;;;20.98;;
21091;SDS011;10704;42.678;23.288;2022-10-23T00:28:40;35.22;;;21.77;;
21091;SDS011;10704;42.678;23.288;2022-10-23T00:31:07;41.38;;;22.38;;
21091;SDS011;10704;42.678;23.288;2022-10-23T00:33:33;36.53;;;22.38;;
21091;SDS011;10704;42.678;23.288;2022-10-23T00:43:34;37.03;;;21.05;;
21091;SDS011;10704;42.678;23.288;2022-10-23T00:46:24;32.47;;;20.65;;
21091;SDS011;10704;42.678;23.288;2022-10-23T00:48:50;33.38;;;20.48;;
21091;SDS011;10704;42.678;23.288;2022-10-23T00:51:16;33.35;;;21.17;;
21091;SDS011;10704;42.678;23.288;2022-10-23T00:53:42;35.00;;;19.85;;
21091;SDS011;10704;42.678;23.288;2022-10-23T00:56:09;34.58;;;19.85;;
21091;SDS011;10704;42.678;23.288;2022-10-23T00:58:36;32.63;;;20.15;;
21091;SDS011;10704;42.678;23.288;2022-10-23T01:01:01;32.00;;;20.23;;
21091;SDS011;10704;42.678;23.288;2022-10-23T01:03:39;32.42;;;20.33;;
21091;SDS011;10704;42.678;23.288;2022-10-23T01:13:10;31.70;;;19.98;;
21091;SDS011;10704;42.678;23.288;2022-10-23T01:15:40;36.72;;;20.90;;
21091;SDS011;10704;42.678;23.288;2022-10-23T01:20:55;39.22;;;25.40;;
21091;SDS011;10704;42.678;23.288;2022-10-23T01:26:49;48.92;;;30.08;;
21091;SDS011;10704;42.678;23.288;2022-10-23T01:29:40;50.60;;;30.50;;
21091;SDS011;10704;42.678;23.288;2022-10-23T01:35:59;49.05;;;29.75;;
21091;SDS011;10704;42.678;23.288;2022-10-23T01:39:14;51.85;;;31.92;;
21091;SDS011;10704;42.678;23.288;2022-10-23T01:41:28;49.83;;;30.27;;
21091;SDS011;10704;42.678;23.288;2022-10-23T01:44:26;53.22;;;30.08;;
21091;SDS011;10704;42.678;23.288;2022-10-23T01:46:59;52.85;;;30.73;;
21091;SDS011;10704;42.678;23.288;2022-10-23T01:49:30;52.05;;;30.20;;
21091;SDS011;10704;42.678;23.288;2022-10-23T01:51:58;50.13;;;28.95;;
21091;SDS011;10704;42.678;23.288;2022-10-23T02:01:41;43.58;;;26.05;;
21091;SDS011;10704;42.678;23.288;2022-10-23T02:04:11;47.00;;;26.25;;
21091;SDS011;10704;42.678;23.288;2022-10-23T02:06:39;40.13;;;25.20;;
21091;SDS011;10704;42.678;23.288;2022-10-23T02:09:09;46.55;;;26.67;;
21091;SDS011;10704;42.678;23.288;2022-10-23T02:11:38;48.42;;;27.05;;
21091;SDS011;10704;42.678;23.288;2022-10-23T02:22:59;41.58;;;25.20;;
21091;SDS011;10704;42.678;23.288;2022-10-23T02:31:50;48.08;;;23.90;;
21091;SDS011;10704;42.678;23.288;2022-10-23T02:34:17;35.75;;;23.40;;
21091;SDS011;10704;42.678;23.288;2022-10-23T02:36:43;37.70;;;22.67;;
21091;SDS011;10704;42.678;23.288;2022-10-23T02:39:09;37.92;;;21.70;;
21091;SDS011;10704;42.678;23.288;2022-10-23T02:41:55;34.60;;;22.05;;
21091;SDS011;10704;42.678;23.288;2022-10-23T02:44:41;32.80;;;21.25;;
21091;SDS011;10704;42.678;23.288;2022-10-23T02:52:52;30.33;;;18.42;;
21091;SDS011;10704;42.678;23.288;2022-10-23T02:58:06;34.58;;;19.50;;
21091;SDS011;10704;42.678;23.288;2022-10-23T03:01:18;36.40;;;21.20;;
21091;SDS011;10704;42.678;23.288;2022-10-23T03:03:50;37.08;;;20.85;;
21091;SDS011;10704;42.678;23.288;2022-10-23T03:06:19;36.90;;;21.83;;
21091;SDS011;10704;42.678;23.288;2022-10-23T03:08:53;35.83;;;21.13;;
21091;SDS011;10704;42.678;23.288;2022-10-23T03:11:23;34.25;;;20.58;;
21091;SDS011;10704;42.678;23.288;2022-10-23T03:13:50;33.28;;;19.48;;
21091;SDS011;10704;42.678;23.288;2022-10-23T03:16:16;40.50;;;20.60;;
21091;SDS011;10704;42.678;23.288;2022-10-23T03:18:48;34.30;;;20.63;;
21091;SDS011;10704;42.678;23.288;2022-10-23T03:25:03;31.45;;;18.67;;
21091;SDS011;10704;42.678;23.288;2022-10-23T03:27:31;32.55;;;17.90;;
21091;SDS011;10704;42.678;23.288;2022-10-23T03:30:00;31.13;;;17.50;;
21091;SDS011;10704;42.678;23.288;2022-10-23T03:32:29;26.70;;;16.50;;
21091;SDS011;10704;42.678;23.288;2022-10-23T03:34:55;34.90;;;17.15;;
21091;SDS011;10704;42.678;23.288;2022-10-23T03:37:21;30.55;;;17.38;;
21091;SDS011;10704;42.678;23.288;2022-10-23T03:39:48;30.00;;;16.60;;
21091;SDS011;10704;42.678;23.288;2022-10-23T03:42:15;26.45;;;16.38;;
21091;SDS011;10704;42.678;23.288;2022-10-23T03:44:41;32.15;;;17.58;;
21091;SDS011;10704;42.678;23.288;2022-10-23T03:47:07;28.45;;;16.10;;
21091;SDS011;10704;42.678;23.288;2022-10-23T03:49:34;30.55;;;16.85;;
21091;SDS011;10704;42.678;23.288;2022-10-23T03:52:04;35.50;;;17.73;;
21091;SDS011;10704;42.678;23.288;2022-10-23T03:54:30;26.60;;;17.70;;
21091;SDS011;10704;42.678;23.288;2022-10-23T03:56:58;25.10;;;15.13;;
21091;SDS011;10704;42.678;23.288;2022-10-23T03:59:25;32.50;;;15.82;;
21091;SDS011;10704;42.678;23.288;2022-10-23T04:01:51;23.05;;;13.40;;
21091;SDS011;10704;42.678;23.288;2022-10-23T04:08:12;28.58;;;11.57;;
21091;SDS011;10704;42.678;23.288;2022-10-23T04:10:39;22.20;;;10.30;;
21091;SDS011;10704;42.678;23.288;2022-10-23T04:13:05;22.13;;;9.40;;
21091;SDS011;10704;42.678;23.288;2022-10-23T04:15:34;19.88;;;9.57;;
21091;SDS011;10704;42.678;23.288;2022-10-23T04:28:55;15.38;;;7.75;;
21091;SDS011;10704;42.678;23.288;2022-10-23T04:31:21;12.45;;;6.47;;
21091;SDS011;10704;42.678;23.288;2022-10-23T04:33:47;18.23;;;6.60;;
21091;SDS011;10704;42.678;23.288;2022-10-23T04:36:27;12.77;;;6.32;;
21091;SDS011;10704;42.678;23.288;2022-10-23T04:42:40;15.20;;;5.80;;
21091;SDS011;10704;42.678;23.288;2022-10-23T04:45:06;15.35;;;6.47;;
21091;SDS011;10704;42.678;23.288;2022-10-23T04:47:33;14.65;;;6.60;;
21091;SDS011;10704;42.678;23.288;2022-10-23T04:50:01;11.00;;;6.00;;
21091;SDS011;10704;42.678;23.288;2022-10-23T04:52:47;14.23;;;6.43;;
21091;SDS011;10704;42.678;23.288;2022-10-23T04:55:31;11.80;;;6.22;;
21091;SDS011;10704;42.678;23.288;2022-10-23T04:58:09;11.95;;;6.40;;
21091;SDS011;10704;42.678;23.288;2022-10-23T05:00:35;11.02;;;6.03;;
21091;SDS011;10704;42.678;23.288;2022-10-23T05:03:01;11.52;;;5.57;;
21091;SDS011;10704;42.678;23.288;2022-10-23T05:09:22;9.13;;;5.15;;
21091;SDS011;10704;42.678;23.288;2022-10-23T05:15:53;19.25;;;6.35;;
21091;SDS011;10704;42.678;23.288;2022-10-23T05:20:53;17.88;;;5.90;;
21091;SDS011;10704;42.678;23.288;2022-10-23T05:23:26;11.80;;;5.90;;
21091;SDS011;10704;42.678;23.288;2022-10-23T05:25:59;13.18;;;5.78;;
21091;SDS011;10704;42.678;23.288;2022-10-23T05:28:38;12.82;;;5.65;;
21091;SDS011;10704;42.678;23.288;2022-10-23T05:31:04;12.70;;;6.07;;
21091;SDS011;10704;42.678;23.288;2022-10-23T05:33:33;13.38;;;6.88;;
21091;SDS011;10704;42.678;23.288;2022-10-23T05:36:00;12.23;;;6.13;;
21091;SDS011;10704;42.678;23.288;2022-10-23T05:38:28;14.38;;;6.05;;
21091;SDS011;10704;42.678;23.288;2022-10-23T05:44:47;14.30;;;6.95;;
21091;SDS011;10704;42.678;23.288;2022-10-23T05:51:12;14.95;;;7.55;;
21091;SDS011;10704;42.678;23.288;2022-10-23T05:57:39;12.88;;;7.43;;
21091;SDS011;10704;42.678;23.288;2022-10-23T06:00:09;21.90;;;10.95;;
21091;SDS011;10704;42.678;23.288;2022-10-23T06:02:41;24.38;;;10.98;;
21091;SDS011;10704;42.678;23.288;2022-10-23T06:15:53;15.02;;;7.00;;
21091;SDS011;10704;42.678;23.288;2022-10-23T06:29:14;13.60;;;6.65;;
21091;SDS011;10704;42.678;23.288;2022-10-23T06:31:42;17.13;;;6.18;;
21091;SDS011;10704;42.678;23.288;2022-10-23T06:34:08;16.27;;;7.45;;
21091;SDS011;10704;42.678;23.288;2022-10-23T06:36:36;17.52;;;9.20;;
21091;SDS011;10704;42.678;23.288;2022-10-23T06:39:22;16.48;;;7.32;;
21091;SDS011;10704;42.678;23.288;2022-10-23T06:46:03;14.40;;;7.18;;
21091;SDS011;10704;42.678;23.288;2022-10-23T06:48:47;12.95;;;6.68;;
21091;SDS011;10704;42.678;23.288;2022-10-23T06:51:20;14.82;;;6.82;;
21091;SDS011;10704;42.678;23.288;2022-10-23T06:53:46;16.00;;;6.78;;
21091;SDS011;10704;42.678;23.288;2022-10-23T06:56:47;16.25;;;6.85;;
21091;SDS011;10704;42.678;23.288;2022-10-23T06:59:16;13.73;;;7.07;;
21091;SDS011;10704;42.678;23.288;2022-10-23T07:01:44;15.65;;;7.50;;
21091;SDS011;10704;42.678;23.288;2022-10-23T07:04:10;17.05;;;7.50;;
21091;SDS011;10704;42.678;23.288;2022-10-23T07:10:26;14.75;;;7.22;;
21091;SDS011;10704;42.678;23.288;2022-10-23T07:16:16;13.63;;;6.50;;
21091;SDS011;10704;42.678;23.288;2022-10-23T07:18:47;14.25;;;6.63;;
21091;SDS011;10704;42.678;23.288;2022-10-23T07:21:30;15.75;;;6.95;;
21091;SDS011;10704;42.678;23.288;2022-10-23T07:24:15;11.93;;;6.15;;
21091;SDS011;10704;42.678;23.288;2022-10-23T07:26:41;16.35;;;7.38;;
21091;SDS011;10704;42.678;23.288;2022-10-23T07:29:09;13.70;;;6.60;;
21091;SDS011;10704;42.678;23.288;2022-10-23T07:31:36;16.70;;;6.55;;
21091;SDS011;10704;42.678;23.288;2022-10-23T07:34:34;14.82;;;7.82;;
21091;SDS011;10704;42.678;23.288;2022-10-23T07:37:21;11.50;;;5.90;;
21091;SDS011;10704;42.678;23.288;2022-10-23T07:39:47;15.65;;;7.93;;
21091;SDS011;10704;42.678;23.288;2022-10-23T07:42:13;13.80;;;7.40;;
21091;SDS011;10704;42.678;23.288;2022-10-23T07:44:40;10.70;;;5.93;;
21091;SDS011;10704;42.678;23.288;2022-10-23T07:47:06;12.23;;;7.40;;
21091;SDS011;10704;42.678;23.288;2022-10-23T07:49:32;12.48;;;6.13;;
21091;SDS011;10704;42.678;23.288;2022-10-23T07:55:59;13.18;;;6.05;;
21091;SDS011;10704;42.678;23.288;2022-10-23T07:58:45;13.05;;;5.95;;
21091;SDS011;10704;42.678;23.288;2022-10-23T08:04:17;14.50;;;6.40;;
21091;SDS011;10704;42.678;23.288;2022-10-23T08:06:51;14.60;;;6.38;;
21091;SDS011;10704;42.678;23.288;2022-10-23T08:09:18;24.38;;;6.35;;
21091;SDS011;10704;42.678;23.288;2022-10-23T08:11:44;16.65;;;6.13;;
21091;SDS011;10704;42.678;23.288;2022-10-23T08:14:13;19.63;;;6.53;;
21091;SDS011;10704;42.678;23.288;2022-10-23T08:16:41;15.88;;;7.50;;
21091;SDS011;10704;42.678;23.288;2022-10-23T08:19:16;16.85;;;7.38;;
21091;SDS011;10704;42.678;23.288;2022-10-23T08:21:43;15.20;;;6.68;;
21091;SDS011;10704;42.678;23.288;2022-10-23T08:24:11;15.13;;;7.00;;
21091;SDS011;10704;42.678;23.288;2022-10-23T08:26:39;12.23;;;6.57;;
21091;SDS011;10704;42.678;23.288;2022-10-23T08:29:05;9.90;;;5.90;;
21091;SDS011;10704;42.678;23.288;2022-10-23T08:31:31;8.82;;;5.15;;
21091;SDS011;10704;42.678;23.288;2022-10-23T08:34:28;13.23;;;5.38;;
21091;SDS011;10704;42.678;23.288;2022-10-23T08:37:00;9.45;;;4.18;;
21091;SDS011;10704;42.678;23.288;2022-10-23T08:39:28;12.40;;;4.90;;
21091;SDS011;10704;42.678;23.288;2022-10-23T08:42:04;6.97;;;4.18;;
21091;SDS011;10704;42.678;23.288;2022-10-23T08:51:33;10.15;;;3.85;;
21091;SDS011;10704;42.678;23.288;2022-10-23T08:54:19;10.15;;;5.00;;
21091;SDS011;10704;42.678;23.288;2022-10-23T08:57:00;14.98;;;6.28;;
21091;SDS011;10704;42.678;23.288;2022-10-23T09:00:07;14.13;;;6.75;;
21091;SDS011;10704;42.678;23.288;2022-10-23T09:02:31;16.75;;;9.27;;
21091;SDS011;10704;42.678;23.288;2022-10-23T09:05:29;12.73;;;7.80;;
21091;SDS011;10704;42.678;23.288;2022-10-23T09:12:09;11.35;;;5.40;;
21091;SDS011;10704;42.678;23.288;2022-10-23T09:22:11;9.50;;;5.43;;
21091;SDS011;10704;42.678;23.288;2022-10-23T09:24:40;15.82;;;5.50;;
21091;SDS011;10704;42.678;23.288;2022-10-23T09:27:08;8.82;;;5.50;;
21091;SDS011;10704;42.678;23.288;2022-10-23T09:29:54;8.10;;;4.35;;
21091;SDS011;10704;42.678;23.288;2022-10-23T09:32:31;8.82;;;4.25;;
21091;SDS011;10704;42.678;23.288;2022-10-23T09:34:59;7.43;;;3.90;;
21091;SDS011;10704;42.678;23.288;2022-10-23T09:37:25;9.43;;;5.85;;
21091;SDS011;10704;42.678;23.288;2022-10-23T09:40:13;10.38;;;5.07;;
21091;SDS011;10704;42.678;23.288;2022-10-23T09:42:53;8.93;;;4.68;;
21091;SDS011;10704;42.678;23.288;2022-10-23T09:45:23;7.63;;;4.70;;
21091;SDS011;10704;42.678;23.288;2022-10-23T09:59:58;7.53;;;3.47;;
21091;SDS011;10704;42.678;23.288;2022-10-23T10:02:36;8.65;;;3.42;;
21091;SDS011;10704;42.678;23.288;2022-10-23T10:05:36;6.60;;;3.75;;
21091;SDS011;10704;42.678;23.288;2022-10-23T10:08:42;7.63;;;3.47;;
21091;SDS011;10704;42.678;23.288;2022-10-23T10:36:55;7.40;;;3.05;;
21091;SDS011;10704;42.678;23.288;2022-10-23T10:46:13;5.75;;;2.15;;
21091;SDS011;10704;42.678;23.288;2022-10-23T10:51:51;6.00;;;2.88;;
21091;SDS011;10704;42.678;23.288;2022-10-23T11:00:23;6.25;;;2.70;;
21091;SDS011;10704;42.678;23.288;2022-10-23T11:03:03;6.00;;;2.67;;
21091;SDS011;10704;42.678;23.288;2022-10-23T11:05:36;6.45;;;2.85;;
21091;SDS011;10704;42.678;23.288;2022-10-23T11:08:22;9.45;;;2.85;;
21091;SDS011;10704;42.678;23.288;2022-10-23T11:18:39;3.78;;;2.40;;
21091;SDS011;10704;42.678;23.288;2022-10-23T11:36:47;6.22;;;2.83;;
21091;SDS011;10704;42.678;23.288;2022-10-23T11:39:30;5.10;;;2.70;;
21091;SDS011;10704;42.678;23.288;2022-10-23T11:48:21;6.10;;;2.85;;
21091;SDS011;10704;42.678;23.288;2022-10-23T11:50:59;4.85;;;2.85;;
21091;SDS011;10704;42.678;23.288;2022-10-23T11:55:59;6.53;;;2.70;;
21091;SDS011;10704;42.678;23.288;2022-10-23T11:58:49;5.30;;;2.47;;
21091;SDS011;10704;42.678;23.288;2022-10-23T12:09:39;5.45;;;1.92;;
21091;SDS011;10704;42.678;23.288;2022-10-23T12:14:41;5.25;;;2.47;;
21091;SDS011;10704;42.678;23.288;2022-10-23T12:26:47;5.22;;;2.08;;
21091;SDS011;10704;42.678;23.288;2022-10-23T12:29:30;8.02;;;2.03;;
21091;SDS011;10704;42.678;23.288;2022-10-23T12:40:15;3.83;;;1.90;;
21091;SDS011;10704;42.678;23.288;2022-10-23T12:42:48;3.58;;;1.85;;
21091;SDS011;10704;42.678;23.288;2022-10-23T12:45:30;5.72;;;2.25;;
21091;SDS011;10704;42.678;23.288;2022-10-23T12:48:01;4.80;;;2.22;;
21091;SDS011;10704;42.678;23.288;2022-10-23T12:50:28;4.82;;;2.90;;
21091;SDS011;10704;42.678;23.288;2022-10-23T12:55:24;4.18;;;2.38;;
21091;SDS011;10704;42.678;23.288;2022-10-23T12:57:51;3.70;;;2.17;;
21091;SDS011;10704;42.678;23.288;2022-10-23T13:00:22;5.50;;;1.98;;
21091;SDS011;10704;42.678;23.288;2022-10-23T13:02:59;4.25;;;1.85;;
21091;SDS011;10704;42.678;23.288;2022-10-23T13:13:02;4.50;;;2.03;;
21091;SDS011;10704;42.678;23.288;2022-10-23T13:15:43;3.70;;;1.80;;
21091;SDS011;10704;42.678;23.288;2022-10-23T13:18:10;5.03;;;1.70;;
21091;SDS011;10704;42.678;23.288;2022-10-23T13:20:41;5.68;;;2.58;;
21091;SDS011;10704;42.678;23.288;2022-10-23T13:25:41;5.68;;;2.40;;
21091;SDS011;10704;42.678;23.288;2022-10-23T13:30:34;5.28;;;2.00;;
21091;SDS011;10704;42.678;23.288;2022-10-23T13:35:58;4.15;;;1.80;;
21091;SDS011;10704;42.678;23.288;2022-10-23T13:38:27;9.25;;;2.05;;
21091;SDS011;10704;42.678;23.288;2022-10-23T13:40:59;4.07;;;2.13;;
21091;SDS011;10704;42.678;23.288;2022-10-23T13:43:26;3.83;;;1.92;;
21091;SDS011;10704;42.678;23.288;2022-10-23T13:49:07;4.47;;;2.13;;
21091;SDS011;10704;42.678;23.288;2022-10-23T13:51:38;6.28;;;2.35;;
21091;SDS011;10704;42.678;23.288;2022-10-23T13:54:16;5.82;;;2.30;;
21091;SDS011;10704;42.678;23.288;2022-10-23T13:56:47;7.38;;;2.70;;
21091;SDS011;10704;42.678;23.288;2022-10-23T13:59:13;7.40;;;2.45;;
21091;SDS011;10704;42.678;23.288;2022-10-23T14:01:39;6.32;;;3.10;;
21091;SDS011;10704;42.678;23.288;2022-10-23T14:04:06;5.15;;;2.42;;
21091;SDS011;10704;42.678;23.288;2022-10-23T14:06:33;6.60;;;4.38;;
21091;SDS011;10704;42.678;23.288;2022-10-23T14:09:02;9.10;;;5.03;;
21091;SDS011;10704;42.678;23.288;2022-10-23T14:11:30;7.45;;;3.63;;
21091;SDS011;10704;42.678;23.288;2022-10-23T14:13:56;5.60;;;2.97;;
21091;SDS011;10704;42.678;23.288;2022-10-23T14:16:22;7.70;;;2.90;;
21091;SDS011;10704;42.678;23.288;2022-10-23T14:18:48;6.60;;;2.80;;
21091;SDS011;10704;42.678;23.288;2022-10-23T14:21:15;4.68;;;2.60;;
21091;SDS011;10704;42.678;23.288;2022-10-23T14:23:44;7.30;;;2.88;;
21091;SDS011;10704;42.678;23.288;2022-10-23T14:26:11;6.15;;;3.08;;
21091;SDS011;10704;42.678;23.288;2022-10-23T14:28:39;8.00;;;3.42;;
21091;SDS011;10704;42.678;23.288;2022-10-23T14:31:07;7.03;;;3.25;;
21091;SDS011;10704;42.678;23.288;2022-10-23T14:33:35;7.28;;;3.55;;
21091;SDS011;10704;42.678;23.288;2022-10-23T14:36:01;9.43;;;5.25;;
21091;SDS011;10704;42.678;23.288;2022-10-23T14:38:27;6.18;;;3.50;;
21091;SDS011;10704;42.678;23.288;2022-10-23T14:40:53;10.07;;;4.00;;
21091;SDS011;10704;42.678;23.288;2022-10-23T14:43:19;7.13;;;3.15;;
21091;SDS011;10704;42.678;23.288;2022-10-23T14:45:45;7.55;;;3.53;;
21091;SDS011;10704;42.678;23.288;2022-10-23T14:48:11;7.35;;;4.43;;
21091;SDS011;10704;42.678;23.288;2022-10-23T14:50:41;7.22;;;3.88;;
21091;SDS011;10704;42.678;23.288;2022-10-23T14:53:08;7.15;;;3.20;;
21091;SDS011;10704;42.678;23.288;2022-10-23T14:55:34;9.05;;;4.18;;
21091;SDS011;10704;42.678;23.288;2022-10-23T14:58:00;11.27;;;5.55;;
21091;SDS011;10704;42.678;23.288;2022-10-23T15:00:26;7.68;;;4.72;;
21091;SDS011;10704;42.678;23.288;2022-10-23T15:02:52;19.88;;;16.58;;
21091;SDS011;10704;42.678;23.288;2022-10-23T15:09:05;7.03;;;3.75;;
21091;SDS011;10704;42.678;23.288;2022-10-23T15:11:31;8.82;;;3.70;;
21091;SDS011;10704;42.678;23.288;2022-10-23T15:13:57;7.93;;;3.65;;
21091;SDS011;10704;42.678;23.288;2022-10-23T15:16:24;6.03;;;2.35;;
21091;SDS011;10704;42.678;23.288;2022-10-23T15:18:50;8.30;;;5.97;;
21091;SDS011;10704;42.678;23.288;2022-10-23T15:21:16;17.50;;;10.35;;
21091;SDS011;10704;42.678;23.288;2022-10-23T15:23:43;4.30;;;2.60;;
21091;SDS011;10704;42.678;23.288;2022-10-23T15:26:17;6.30;;;2.75;;
21091;SDS011;10704;42.678;23.288;2022-10-23T15:28:58;5.15;;;2.80;;
21091;SDS011;10704;42.678;23.288;2022-10-23T15:34:03;9.02;;;3.53;;
21091;SDS011;10704;42.678;23.288;2022-10-23T15:36:30;8.75;;;3.60;;
21091;SDS011;10704;42.678;23.288;2022-10-23T15:38:56;15.20;;;5.90;;
21091;SDS011;10704;42.678;23.288;2022-10-23T15:48:00;8.15;;;3.78;;
21091;SDS011;10704;42.678;23.288;2022-10-23T15:53:29;9.48;;;3.17;;
21091;SDS011;10704;42.678;23.288;2022-10-23T15:55:55;11.02;;;4.63;;
21091;SDS011;10704;42.678;23.288;2022-10-23T15:58:23;8.95;;;4.25;;
21091;SDS011;10704;42.678;23.288;2022-10-23T16:04:37;8.05;;;3.70;;
21091;SDS011;10704;42.678;23.288;2022-10-23T16:10:50;7.53;;;3.30;;
21091;SDS011;10704;42.678;23.288;2022-10-23T16:13:16;9.43;;;3.90;;
21091;SDS011;10704;42.678;23.288;2022-10-23T16:15:42;9.68;;;3.35;;
21091;SDS011;10704;42.678;23.288;2022-10-23T16:18:08;5.68;;;3.33;;
21091;SDS011;10704;42.678;23.288;2022-10-23T16:27:17;11.15;;;5.97;;
21091;SDS011;10704;42.678;23.288;2022-10-23T16:32:39;9.35;;;5.03;;
21091;SDS011;10704;42.678;23.288;2022-10-23T16:35:05;9.57;;;4.50;;
21091;SDS011;10704;42.678;23.288;2022-10-23T16:37:42;10.60;;;5.00;;
21091;SDS011;10704;42.678;23.288;2022-10-23T16:40:13;9.02;;;4.47;;
21091;SDS011;10704;42.678;23.288;2022-10-23T16:42:58;7.63;;;4.13;;
21091;SDS011;10704;42.678;23.288;2022-10-23T16:45:34;6.93;;;3.38;;
21091;SDS011;10704;42.678;23.288;2022-10-23T16:48:00;9.35;;;4.57;;
21091;SDS011;10704;42.678;23.288;2022-10-23T16:50:26;11.48;;;4.75;;
21091;SDS011;10704;42.678;23.288;2022-10-23T16:52:52;9.18;;;5.45;;
21091;SDS011;10704;42.678;23.288;2022-10-23T16:55:27;9.27;;;5.90;;
21091;SDS011;10704;42.678;23.288;2022-10-23T16:57:53;11.85;;;5.45;;
21091;SDS011;10704;42.678;23.288;2022-10-23T17:00:26;10.57;;;5.13;;
21091;SDS011;10704;42.678;23.288;2022-10-23T17:02:59;11.02;;;5.95;;
21091;SDS011;10704;42.678;23.288;2022-10-23T17:05:31;8.93;;;4.10;;
21091;SDS011;10704;42.678;23.288;2022-10-23T17:07:58;10.15;;;5.65;;
21091;SDS011;10704;42.678;23.288;2022-10-23T17:10:24;8.90;;;4.72;;
21091;SDS011;10704;42.678;23.288;2022-10-23T17:12:50;6.30;;;3.53;;
21091;SDS011;10704;42.678;23.288;2022-10-23T17:15:16;9.30;;;4.50;;
21091;SDS011;10704;42.678;23.288;2022-10-23T17:17:44;8.55;;;3.88;;
21091;SDS011;10704;42.678;23.288;2022-10-23T17:23:58;8.02;;;3.67;;
21091;SDS011;10704;42.678;23.288;2022-10-23T17:26:24;7.03;;;3.83;;
21091;SDS011;10704;42.678;23.288;2022-10-23T17:28:50;7.30;;;3.90;;
21091;SDS011;10704;42.678;23.288;2022-10-23T17:31:21;6.68;;;3.47;;
21091;SDS011;10704;42.678;23.288;2022-10-23T17:33:49;7.88;;;3.17;;
21091;SDS011;10704;42.678;23.288;2022-10-23T17:36:17;9.45;;;3.55;;
21091;SDS011;10704;42.678;23.288;2022-10-23T17:42:48;6.85;;;3.00;;
21091;SDS011;10704;42.678;23.288;2022-10-23T17:52:31;6.47;;;3.70;;
21091;SDS011;10704;42.678;23.288;2022-10-23T17:54:57;8.40;;;3.83;;
21091;SDS011;10704;42.678;23.288;2022-10-23T17:57:23;7.95;;;4.38;;
21091;SDS011;10704;42.678;23.288;2022-10-23T17:59:49;7.75;;;4.50;;
21091;SDS011;10704;42.678;23.288;2022-10-23T18:02:15;8.90;;;4.90;;
21091;SDS011;10704;42.678;23.288;2022-10-23T18:04:41;7.57;;;3.65;;
21091;SDS011;10704;42.678;23.288;2022-10-23T18:07:07;6.45;;;3.53;;
21091;SDS011;10704;42.678;23.288;2022-10-23T18:09:33;8.45;;;4.35;;
21091;SDS011;10704;42.678;23.288;2022-10-23T18:11:59;8.63;;;4.20;;
21091;SDS011;10704;42.678;23.288;2022-10-23T18:14:25;9.25;;;4.00;;
21091;SDS011;10704;42.678;23.288;2022-10-23T18:16:51;8.98;;;4.78;;
21091;SDS011;10704;42.678;23.288;2022-10-23T18:19:17;8.23;;;4.20;;
21091;SDS011;10704;42.678;23.288;2022-10-23T18:21:44;8.50;;;4.07;;
21091;SDS011;10704;42.678;23.288;2022-10-23T18:27:58;12.02;;;5.63;;
21091;SDS011;10704;42.678;23.288;2022-10-23T18:30:24;14.32;;;5.93;;
21091;SDS011;10704;42.678;23.288;2022-10-23T18:32:50;12.57;;;6.40;;
21091;SDS011;10704;42.678;23.288;2022-10-23T18:35:16;14.57;;;6.78;;
21091;SDS011;10704;42.678;23.288;2022-10-23T18:37:42;15.05;;;7.15;;
21091;SDS011;10704;42.678;23.288;2022-10-23T18:40:08;13.85;;;7.45;;
21091;SDS011;10704;42.678;23.288;2022-10-23T18:42:34;15.27;;;6.90;;
21091;SDS011;10704;42.678;23.288;2022-10-23T18:45:00;17.88;;;7.88;;
21091;SDS011;10704;42.678;23.288;2022-10-23T18:47:26;15.20;;;7.15;;
21091;SDS011;10704;42.678;23.288;2022-10-23T18:49:52;14.60;;;7.65;;
21091;SDS011;10704;42.678;23.288;2022-10-23T18:56:06;17.38;;;7.25;;
21091;SDS011;10704;42.678;23.288;2022-10-23T18:58:32;17.70;;;8.40;;
21091;SDS011;10704;42.678;23.288;2022-10-23T19:00:58;12.05;;;6.45;;
21091;SDS011;10704;42.678;23.288;2022-10-23T19:03:24;18.45;;;7.68;;
21091;SDS011;10704;42.678;23.288;2022-10-23T19:05:50;13.30;;;6.80;;
21091;SDS011;10704;42.678;23.288;2022-10-23T19:08:16;16.02;;;8.25;;
21091;SDS011;10704;42.678;23.288;2022-10-23T19:10:43;11.77;;;7.43;;
21091;SDS011;10704;42.678;23.288;2022-10-23T19:13:10;13.80;;;6.80;;
21091;SDS011;10704;42.678;23.288;2022-10-23T19:15:36;14.68;;;9.13;;
21091;SDS011;10704;42.678;23.288;2022-10-23T19:18:03;13.10;;;7.25;;
21091;SDS011;10704;42.678;23.288;2022-10-23T19:20:30;15.88;;;8.35;;
21091;SDS011;10704;42.678;23.288;2022-10-23T19:22:57;13.68;;;8.27;;
21091;SDS011;10704;42.678;23.288;2022-10-23T19:25:25;14.48;;;9.02;;
21091;SDS011;10704;42.678;23.288;2022-10-23T19:27:55;13.35;;;8.38;;
21091;SDS011;10704;42.678;23.288;2022-10-23T19:30:22;18.02;;;10.27;;
21091;SDS011;10704;42.678;23.288;2022-10-23T19:32:49;17.42;;;9.63;;
21091;SDS011;10704;42.678;23.288;2022-10-23T19:35:16;16.88;;;10.73;;
21091;SDS011;10704;42.678;23.288;2022-10-23T19:37:44;12.52;;;8.32;;
21091;SDS011;10704;42.678;23.288;2022-10-23T19:40:10;15.07;;;8.35;;
21091;SDS011;10704;42.678;23.288;2022-10-23T19:46:24;19.42;;;10.80;;
21091;SDS011;10704;42.678;23.288;2022-10-23T19:48:51;22.17;;;9.15;;
21091;SDS011;10704;42.678;23.288;2022-10-23T19:51:17;18.77;;;8.43;;
21091;SDS011;10704;42.678;23.288;2022-10-23T19:53:42;16.42;;;8.00;;
21091;SDS011;10704;42.678;23.288;2022-10-23T19:56:10;19.08;;;9.73;;
21091;SDS011;10704;42.678;23.288;2022-10-23T19:58:36;18.02;;;9.00;;
21091;SDS011;10704;42.678;23.288;2022-10-23T20:01:10;19.17;;;9.55;;
21091;SDS011;10704;42.678;23.288;2022-10-23T20:07:25;22.48;;;11.27;;
21091;SDS011;10704;42.678;23.288;2022-10-23T20:09:51;58.85;;;31.52;;
21091;SDS011;10704;42.678;23.288;2022-10-23T20:12:16;31.27;;;16.60;;
21091;SDS011;10704;42.678;23.288;2022-10-23T20:18:30;20.23;;;10.75;;
21091;SDS011;10704;42.678;23.288;2022-10-23T20:20:59;17.52;;;9.48;;
21091;SDS011;10704;42.678;23.288;2022-10-23T20:31:05;20.45;;;11.05;;
21091;SDS011;10704;42.678;23.288;2022-10-23T20:33:33;22.63;;;11.20;;
21091;SDS011;10704;42.678;23.288;2022-10-23T20:36:01;22.17;;;11.05;;
21091;SDS011;10704;42.678;23.288;2022-10-23T20:38:28;28.10;;;12.63;;
21091;SDS011;10704;42.678;23.288;2022-10-23T20:40:54;19.77;;;11.13;;
21091;SDS011;10704;42.678;23.288;2022-10-23T20:43:22;22.33;;;12.68;;
21091;SDS011;10704;42.678;23.288;2022-10-23T20:45:48;23.70;;;12.07;;
21091;SDS011;10704;42.678;23.288;2022-10-23T20:48:13;26.20;;;12.18;;
21091;SDS011;10704;42.678;23.288;2022-10-23T21:02:40;32.28;;;14.38;;
21091;SDS011;10704;42.678;23.288;2022-10-23T21:05:06;22.50;;;12.00;;
21091;SDS011;10704;42.678;23.288;2022-10-23T21:07:32;25.50;;;11.73;;
21091;SDS011;10704;42.678;23.288;2022-10-23T21:09:58;19.83;;;11.10;;
21091;SDS011;10704;42.678;23.288;2022-10-23T21:12:25;22.33;;;11.45;;